createdAt,value
2022-11-18T00:01:35.739Z,17.32
2022-11-18T00:04:41.685Z,30.72
2022-11-18T00:07:47.928Z,27.02
2022-11-18T00:10:53.788Z,27.82
2022-11-18T00:14:18.401Z,29.70
2022-11-18T00:17:23.929Z,28.00
2022-11-18T00:20:28.907Z,21.25
2022-11-18T00:23:35.247Z,21.02
2022-11-18T00:26:43.453Z,20.17
2022-11-18T00:29:48.688Z,20.97
2022-11-18T00:32:54.409Z,24.47
2022-11-18T00:36:00.817Z,24.20
2022-11-18T00:39:06.314Z,25.95
2022-11-18T00:42:30.265Z,26.23
2022-11-18T00:45:37.062Z,29.12
2022-11-18T00:48:42.142Z,26.17
2022-11-18T00:51:47.927Z,27.73
2022-11-18T00:54:55.045Z,28.40
2022-11-18T00:58:02.909Z,26.15
2022-11-18T01:01:08.619Z,29.95
2022-11-18T01:04:00.191Z,31.62
2022-11-18T01:07:06.054Z,30.02
2022-11-18T01:10:12.616Z,30.25
2022-11-18T01:13:30.660Z,28.62
2022-11-18T01:16:39.612Z,27.77
2022-11-18T01:19:45.548Z,32.80
2022-11-18T01:22:51.026Z,28.50
2022-11-18T01:25:57.846Z,31.57
2022-11-18T01:29:04.284Z,28.07
2022-11-18T01:32:24.010Z,31.37
2022-11-18T01:35:17.611Z,31.57
2022-11-18T01:38:25.451Z,32.48
2022-11-18T01:41:31.980Z,32.42
2022-11-18T01:45:12.564Z,33.55
2022-11-18T01:48:46.307Z,32.20
2022-11-18T01:52:06.424Z,36.93
2022-11-18T01:55:11.417Z,32.45
2022-11-18T01:58:25.101Z,30.90
2022-11-18T02:01:30.424Z,33.75
2022-11-18T02:04:37.293Z,32.85
2022-11-18T02:07:43.912Z,31.73
2022-11-18T02:10:50.176Z,34.15
2022-11-18T02:13:56.197Z,33.05
2022-11-18T02:17:29.691Z,30.52
2022-11-18T02:20:44.674Z,36.77
2022-11-18T02:24:11.451Z,30.27
2022-11-18T02:27:23.093Z,34.75
2022-11-18T02:30:23.730Z,35.45
2022-11-18T02:33:39.139Z,32.33
2022-11-18T02:36:53.177Z,31.87
2022-11-18T02:40:04.338Z,35.15
2022-11-18T02:43:42.387Z,32.90
2022-11-18T02:46:49.850Z,35.10
2022-11-18T02:50:01.525Z,32.88
2022-11-18T02:53:09.506Z,32.15
2022-11-18T02:56:07.882Z,34.48
2022-11-18T02:59:14.089Z,27.35
2022-11-18T03:02:19.524Z,32.10
2022-11-18T03:05:42.618Z,39.88
2022-11-18T03:08:53.199Z,37.28
2022-11-18T03:12:22.966Z,44.15
2022-11-18T03:15:39.764Z,32.27
2022-11-18T03:18:55.777Z,36.75
2022-11-18T03:22:20.982Z,32.85
2022-11-18T03:25:51.836Z,31.10
2022-11-18T03:29:20.951Z,35.43
2022-11-18T03:32:33.476Z,39.25
2022-11-18T03:35:34.885Z,33.42
2022-11-18T03:38:43.745Z,41.55
2022-11-18T03:41:53.108Z,34.88
2022-11-18T03:45:02.809Z,40.50
2022-11-18T03:48:21.455Z,40.28
2022-11-18T03:51:17.229Z,38.05
2022-11-18T03:54:14.719Z,39.08
2022-11-18T03:57:12.146Z,33.90
2022-11-18T04:00:09.528Z,40.08
2022-11-18T04:02:56.546Z,34.90
2022-11-18T04:05:51.360Z,36.08
2022-11-18T04:08:41.741Z,34.88
2022-11-18T04:12:01.094Z,35.55
2022-11-18T04:15:02.548Z,35.78
2022-11-18T04:18:07.509Z,33.80
2022-11-18T04:21:13.196Z,33.92
2022-11-18T07:43:20.811Z,25.62
2022-11-18T07:46:36.869Z,27.52
2022-11-18T07:49:42.132Z,28.40
2022-11-18T07:52:48.979Z,25.45
2022-11-18T07:55:57.516Z,22.10
2022-11-18T07:59:02.572Z,27.30
2022-11-18T08:02:08.821Z,28.40
2022-11-18T08:05:17.947Z,26.42
2022-11-18T08:08:21.864Z,26.35
2022-11-18T08:11:29.958Z,29.05
2022-11-18T08:14:37.035Z,31.57
2022-11-18T08:17:44.418Z,25.27
2022-11-18T08:20:51.390Z,27.48
2022-11-18T08:23:58.205Z,29.52
2022-11-18T08:27:03.475Z,29.57
2022-11-18T08:30:08.805Z,28.52
2022-11-18T08:33:13.666Z,30.55
2022-11-18T08:36:28.989Z,33.08
2022-11-18T08:39:35.891Z,33.02
2022-11-18T08:42:41.681Z,32.85
2022-11-18T08:45:48.691Z,32.08
2022-11-18T08:48:54.526Z,31.55
2022-11-18T08:51:59.267Z,30.12
2022-11-18T08:55:05.757Z,39.03
2022-11-18T08:58:11.984Z,63.60
2022-11-18T09:01:21.224Z,126.40
2022-11-18T09:04:26.168Z,49.63
2022-11-18T09:07:33.446Z,33.30
2022-11-18T09:10:40.764Z,32.95
2022-11-18T09:14:39.015Z,33.55
2022-11-18T09:16:53.492Z,28.30
2022-11-18T09:19:59.015Z,28.55
2022-11-18T09:23:04.630Z,26.90
2022-11-18T09:26:21.475Z,25.27
2022-11-18T09:29:29.254Z,29.20
2022-11-18T09:32:34.721Z,27.30
2022-11-18T09:35:40.695Z,24.87
2022-11-18T09:38:52.937Z,27.35
2022-11-18T09:42:07.858Z,21.30
2022-11-18T09:45:32.273Z,30.05
2022-11-18T09:48:57.419Z,23.77
2022-11-18T09:52:04.974Z,25.77
2022-11-18T09:55:10.466Z,26.68
2022-11-18T09:58:16.713Z,24.00
2022-11-18T10:01:31.305Z,29.15
2022-11-18T10:04:37.361Z,24.98
2022-11-18T10:07:59.575Z,27.27
2022-11-18T10:11:37.296Z,27.45
2022-11-18T10:15:08.522Z,26.30
2022-11-18T10:19:04.326Z,28.92
2022-11-18T10:25:18.375Z,29.40
2022-11-18T10:28:39.580Z,27.77
2022-11-18T10:31:45.554Z,34.40
2022-11-18T10:34:51.637Z,33.28
2022-11-18T10:38:12.217Z,27.82
2022-11-18T10:41:10.776Z,37.40
2022-11-18T10:44:11.894Z,38.25
2022-11-18T10:47:42.173Z,37.08
2022-11-18T10:50:56.213Z,32.70
2022-11-18T10:54:01.318Z,36.58
2022-11-18T10:57:11.989Z,34.13
2022-11-18T11:03:43.590Z,37.42
2022-11-18T11:09:57.657Z,47.70
2022-11-18T11:13:13.755Z,48.73
2022-11-18T11:16:24.891Z,39.40
2022-11-18T11:19:27.472Z,39.40
2022-11-18T11:22:33.079Z,50.15
2022-11-18T11:29:31.558Z,40.88
2022-11-18T11:33:03.079Z,38.48
2022-11-18T11:36:35.192Z,38.00
2022-11-18T11:39:53.988Z,30.88
2022-11-18T11:43:29.877Z,31.00
2022-11-18T11:47:30.252Z,37.08
2022-11-18T11:51:05.439Z,29.35
2022-11-18T11:54:42.589Z,31.25
2022-11-18T11:58:20.724Z,37.63
2022-11-18T12:01:50.550Z,30.20
2022-11-18T12:05:12.240Z,35.03
2022-11-18T12:08:31.896Z,24.57
2022-11-18T12:12:21.068Z,31.33
2022-11-18T12:16:00.747Z,27.65
2022-11-18T12:19:22.681Z,30.83
2022-11-18T12:22:28.226Z,32.38
2022-11-18T12:26:03.895Z,31.73
2022-11-18T12:29:10.105Z,29.95
2022-11-18T12:32:14.640Z,35.40
2022-11-18T12:38:45.824Z,33.15
2022-11-18T12:42:31.514Z,34.43
2022-11-18T12:46:00.809Z,34.27
2022-11-18T12:49:06.214Z,30.30
2022-11-18T12:52:22.120Z,24.45
2022-11-18T12:55:41.645Z,26.25
2022-11-18T12:58:47.433Z,31.65
2022-11-18T13:01:53.499Z,29.75
2022-11-18T13:04:59.440Z,28.87
2022-11-18T13:08:27.072Z,29.05
2022-11-18T13:11:50.173Z,36.93
2022-11-18T16:28:29.700Z,47.78
2022-11-18T16:55:00.012Z,55.15
2022-11-18T16:58:05.960Z,49.67
2022-11-18T17:01:23.480Z,52.98
2022-11-18T17:04:20.040Z,56.98
2022-11-18T17:07:25.994Z,66.85
2022-11-18T17:10:32.203Z,60.17
2022-11-18T17:13:38.841Z,56.13
2022-11-18T17:16:45.140Z,64.47
2022-11-18T17:19:51.325Z,64.07
2022-11-18T17:22:57.219Z,66.60
2022-11-18T17:26:02.934Z,67.97
2022-11-18T17:29:11.766Z,86.82
2022-11-18T17:32:17.348Z,112.80
2022-11-18T17:35:25.281Z,117.82
2022-11-18T17:38:31.758Z,166.95
2022-11-18T17:41:56.688Z,166.53
2022-11-18T17:45:02.702Z,147.75
2022-11-18T17:48:08.760Z,112.37
2022-11-18T17:51:19.810Z,113.22
2022-11-18T17:54:25.412Z,104.80
2022-11-18T17:57:31.101Z,89.47
2022-11-18T18:00:38.472Z,75.40
2022-11-18T18:03:45.010Z,64.10
2022-11-18T18:06:50.065Z,67.78
2022-11-18T18:09:56.151Z,75.32
2022-11-18T18:13:20.902Z,69.37
2022-11-18T18:16:30.206Z,101.05
2022-11-18T18:19:37.512Z,68.95
2022-11-18T18:22:43.630Z,48.98
2022-11-18T18:25:49.550Z,47.62
2022-11-18T18:28:55.847Z,48.50
2022-11-18T18:32:01.445Z,77.60
2022-11-18T18:35:07.250Z,70.50
2022-11-18T18:38:12.955Z,69.75
2022-11-18T18:41:24.051Z,44.93
2022-11-18T18:44:29.890Z,42.03
2022-11-18T18:47:35.372Z,57.05
2022-11-18T18:50:41.443Z,41.10
2022-11-18T18:53:49.167Z,46.25
2022-11-18T18:56:58.598Z,34.90
2022-11-18T19:00:03.927Z,36.95
2022-11-18T19:03:11.241Z,39.80
2022-11-18T19:06:54.891Z,47.30
2022-11-18T19:09:41.258Z,41.98
2022-11-18T19:12:54.178Z,42.98
2022-11-18T19:15:59.703Z,59.45
2022-11-18T19:19:06.486Z,39.58
2022-11-18T19:22:12.070Z,59.33
2022-11-18T19:25:17.714Z,40.88
2022-11-18T19:28:25.141Z,39.23
2022-11-18T19:35:16.646Z,40.20
2022-11-18T19:38:22.511Z,39.67
2022-11-18T19:41:28.453Z,41.50
2022-11-18T19:44:34.035Z,38.55
2022-11-18T19:47:39.334Z,63.70
2022-11-18T19:50:45.154Z,46.53
2022-11-18T19:53:51.369Z,43.70
2022-11-18T19:56:57.667Z,43.58
2022-11-18T20:00:03.590Z,39.90
2022-11-18T20:03:09.081Z,38.95
2022-11-18T20:09:08.356Z,36.65
2022-11-18T20:12:14.057Z,31.12
2022-11-18T20:15:20.811Z,31.37
2022-11-18T20:18:28.032Z,39.35
2022-11-18T20:21:35.228Z,32.75
2022-11-18T20:24:40.806Z,42.20
2022-11-18T20:27:46.144Z,35.00
2022-11-18T20:30:52.022Z,32.78
2022-11-18T20:34:00.387Z,34.63
2022-11-18T20:37:05.957Z,42.90
2022-11-18T20:40:11.286Z,40.52
2022-11-18T20:43:22.490Z,41.18
2022-11-18T20:50:04.629Z,40.03
2022-11-18T20:53:10.157Z,47.48
2022-11-18T20:56:15.693Z,49.25
2022-11-18T20:59:21.616Z,48.30
2022-11-18T21:02:27.443Z,59.88
2022-11-18T21:05:32.748Z,64.17
2022-11-18T21:08:39.356Z,81.70
2022-11-18T21:11:47.434Z,104.63
2022-11-18T21:14:55.616Z,87.15
2022-11-18T21:18:01.187Z,75.57
2022-11-18T21:21:25.303Z,66.72
2022-11-18T21:24:36.833Z,68.33
2022-11-18T21:27:42.242Z,60.03
2022-11-18T21:30:48.078Z,73.37
2022-11-18T21:33:54.280Z,59.63
2022-11-18T21:37:00.115Z,45.80
2022-11-18T21:40:05.552Z,36.80
2022-11-18T21:43:11.295Z,35.28
2022-11-18T21:46:25.544Z,34.05
2022-11-18T21:49:30.990Z,36.68
2022-11-18T21:52:36.497Z,31.52
2022-11-18T21:55:42.266Z,31.95
2022-11-18T21:58:47.171Z,32.42
2022-11-18T22:01:52.059Z,30.15
2022-11-18T22:05:01.550Z,34.27
2022-11-18T22:08:06.855Z,27.82
2022-11-18T22:11:14.461Z,26.20
2022-11-18T22:14:19.895Z,33.83
